Time;durP1;ratioP1;P1;durP2;ratioP2;P2;SDS_P1;SDS_P2;PMS_P1;PMS_P2;Temp;Humidity;BMP_temperature;BMP_pressure;BME280_temperature;BME280_humidity;BME280_pressure;Samples;Min_cycle;Max_cycle;Signal;HPM_P1;HPM_P2
2023/06/08 00:00:41;;;;;;;18.75;12.20;;;;;;;;;;8306146;28;20056;-86
2023/06/08 00:05:07;;;;;;;18.67;11.40;;;;;;;;;;8301178;28;20041;-86
2023/06/08 00:09:10;;;;;;;15.63;11.65;;;;;;;;;;8324843;28;20413;-86
2023/06/08 00:13:14;;;;;;;20.02;11.70;;;;;;;;;;8305815;28;20058;-87
2023/06/08 00:17:17;;;;;;;20.83;14.20;;;;;;;;;;8313601;28;20101;-91
2023/06/08 00:21:22;;;;;;;26.95;15.65;;;;;;;;;;8318331;28;20057;-86
2023/06/08 00:25:25;;;;;;;19.33;14.18;;;;;;;;;;8313642;28;20482;-86
2023/06/08 00:29:28;;;;;;;17.67;12.23;;;;;;;;;;8304570;28;20564;-86
2023/06/08 00:33:30;;;;;;;19.95;13.30;;;;;;;;;;8313099;28;20128;-86
2023/06/08 00:37:35;;;;;;;32.47;17.98;;;;;;;;;;8312915;28;20136;-86
2023/06/08 00:41:38;;;;;;;19.98;14.05;;;;;;;;;;8323732;28;20057;-86
2023/06/08 00:45:44;;;;;;;23.45;15.15;;;;;;;;;;8324576;28;20052;-86
2023/06/08 00:49:47;;;;;;;21.38;14.25;;;;;;;;;;8300462;28;20054;-94
2023/06/08 00:53:53;;;;;;;23.15;14.88;;;;;;;;;;8312631;28;20053;-89
2023/06/08 00:57:56;;;;;;;17.55;13.07;;;;;;;;;;8299325;28;20104;-86
2023/06/08 01:01:59;;;;;;;18.75;13.00;;;;;;;;;;8322732;28;20050;-95
2023/06/08 01:06:08;;;;;;;16.42;12.88;;;;;;;;;;8317503;28;20516;-87
2023/06/08 01:10:17;;;;;;;16.70;13.23;;;;;;;;;;8317074;28;20056;-95
2023/06/08 01:14:33;;;;;;;18.08;11.98;;;;;;;;;;8326470;28;20424;-89
2023/06/08 01:18:40;;;;;;;19.63;11.95;;;;;;;;;;8311567;28;20140;-87
2023/06/08 01:23:04;;;;;;;17.88;12.52;;;;;;;;;;8298575;28;20140;-86
2023/06/08 01:27:09;;;;;;;20.10;14.95;;;;;;;;;;8297639;28;20045;-87
2023/06/08 01:31:12;;;;;;;24.23;15.82;;;;;;;;;;8301426;28;20493;-86
2023/06/08 01:35:15;;;;;;;25.88;16.65;;;;;;;;;;8312865;28;20057;-86
2023/06/08 01:39:30;;;;;;;20.98;12.90;;;;;;;;;;8302365;28;20416;-93
2023/06/08 01:43:35;;;;;;;19.60;12.95;;;;;;;;;;8312408;28;20057;-86
2023/06/08 01:47:42;;;;;;;21.23;13.88;;;;;;;;;;8302222;28;20103;-86
2023/06/08 01:51:47;;;;;;;22.58;13.80;;;;;;;;;;8306459;28;20430;-90
2023/06/08 01:55:50;;;;;;;22.65;14.10;;;;;;;;;;8312077;28;20061;-86
2023/06/08 01:59:54;;;;;;;19.05;13.38;;;;;;;;;;8311528;28;20128;-87
2023/06/08 02:03:57;;;;;;;19.20;13.32;;;;;;;;;;8315350;28;20472;-86
2023/06/08 02:08:00;;;;;;;15.82;11.45;;;;;;;;;;8296728;28;20397;-87
2023/06/08 02:12:08;;;;;;;17.90;12.32;;;;;;;;;;8303547;28;20061;-87
2023/06/08 02:16:13;;;;;;;17.20;12.70;;;;;;;;;;8318160;28;20056;-91
2023/06/08 02:25:00;;;;;;;16.92;11.88;;;;;;;;;;8319135;28;20115;-87
2023/06/08 02:29:03;;;;;;;17.45;12.30;;;;;;;;;;8301855;28;20128;-86
2023/06/08 02:33:07;;;;;;;18.00;12.52;;;;;;;;;;8313490;28;20129;-85
2023/06/08 02:37:10;;;;;;;22.85;16.10;;;;;;;;;;8311332;28;20529;-94
2023/06/08 02:41:13;;;;;;;19.83;13.45;;;;;;;;;;8297055;28;20060;-88
2023/06/08 02:45:16;;;;;;;19.38;13.45;;;;;;;;;;8328221;28;20137;-92
2023/06/08 02:49:20;;;;;;;16.73;11.80;;;;;;;;;;8313147;28;20536;-91
2023/06/08 02:53:23;;;;;;;15.45;11.85;;;;;;;;;;8315041;28;20508;-86
2023/06/08 02:57:26;;;;;;;14.82;11.73;;;;;;;;;;8308168;28;20077;-86
2023/06/08 03:01:30;;;;;;;16.25;12.27;;;;;;;;;;8313224;28;20132;-86
2023/06/08 03:05:39;;;;;;;16.95;10.82;;;;;;;;;;8323620;28;20054;-87
2023/06/08 03:09:42;;;;;;;15.45;12.25;;;;;;;;;;8324622;28;20055;-86
2023/06/08 03:13:45;;;;;;;16.48;12.90;;;;;;;;;;8312183;28;20133;-93
2023/06/08 03:17:47;;;;;;;17.55;13.13;;;;;;;;;;8316833;28;20140;-86
2023/06/08 03:21:53;;;;;;;16.45;11.98;;;;;;;;;;8316672;28;20057;-87
2023/06/08 03:25:56;;;;;;;15.55;11.40;;;;;;;;;;8303986;28;20056;-87
2023/06/08 03:29:59;;;;;;;14.85;11.27;;;;;;;;;;8323812;28;20133;-86
2023/06/08 03:34:01;;;;;;;15.85;12.20;;;;;;;;;;8332544;28;20073;-86
2023/06/08 03:38:06;;;;;;;14.63;10.88;;;;;;;;;;8310200;28;20124;-86
2023/06/08 03:42:09;;;;;;;14.75;10.00;;;;;;;;;;8318408;28;20204;-86
2023/06/08 03:46:12;;;;;;;13.00;11.05;;;;;;;;;;8303201;28;20061;-87
2023/06/08 03:50:15;;;;;;;13.98;11.95;;;;;;;;;;8316586;28;20099;-86
2023/06/08 03:54:19;;;;;;;17.27;12.00;;;;;;;;;;8303071;28;20050;-87
2023/06/08 03:58:23;;;;;;;12.90;10.77;;;;;;;;;;8304657;28;20071;-86
2023/06/08 04:02:26;;;;;;;14.95;11.88;;;;;;;;;;8306130;28;20053;-85
2023/06/08 04:06:33;;;;;;;14.40;12.20;;;;;;;;;;8313876;28;20073;-87
2023/06/08 04:10:37;;;;;;;12.73;9.98;;;;;;;;;;8307767;28;20546;-87
2023/06/08 04:14:39;;;;;;;12.25;9.50;;;;;;;;;;8284611;28;20564;-88
2023/06/08 04:18:42;;;;;;;11.90;8.70;;;;;;;;;;8321321;28;20054;-88
2023/06/08 04:22:45;;;;;;;11.35;8.48;;;;;;;;;;8316100;28;20180;-88
2023/06/08 04:26:50;;;;;;;14.43;9.35;;;;;;;;;;8332210;28;20501;-96
2023/06/08 04:30:53;;;;;;;12.80;8.52;;;;;;;;;;8317543;28;20058;-90
2023/06/08 04:34:56;;;;;;;11.90;7.63;;;;;;;;;;8312091;28;20052;-95
2023/06/08 04:38:59;;;;;;;10.70;7.07;;;;;;;;;;8313505;28;20052;-87
2023/06/08 04:43:03;;;;;;;13.05;7.32;;;;;;;;;;8305711;28;20533;-89
2023/06/08 04:47:07;;;;;;;11.05;7.00;;;;;;;;;;8313324;28;20060;-86
2023/06/08 04:51:10;;;;;;;10.15;6.20;;;;;;;;;;8311999;28;20549;-87
2023/06/08 04:55:14;;;;;;;7.82;5.88;;;;;;;;;;8309157;28;20081;-91
2023/06/08 04:59:18;;;;;;;10.27;6.00;;;;;;;;;;8314590;28;20121;-92
2023/06/08 05:03:21;;;;;;;8.45;5.65;;;;;;;;;;8314159;28;20136;-88
2023/06/08 05:07:24;;;;;;;8.30;5.50;;;;;;;;;;8305002;28;20056;-88
2023/06/08 05:11:27;;;;;;;9.05;5.78;;;;;;;;;;8301547;28;20588;-88
2023/06/08 05:15:31;;;;;;;9.85;5.65;;;;;;;;;;8301603;28;20050;-87
2023/06/08 05:19:35;;;;;;;8.95;5.15;;;;;;;;;;8304037;28;20080;-87
2023/06/08 05:23:38;;;;;;;8.80;5.50;;;;;;;;;;8306253;28;20057;-87
2023/06/08 05:27:41;;;;;;;6.70;4.97;;;;;;;;;;8303016;28;20053;-88
2023/06/08 05:31:45;;;;;;;7.15;5.00;;;;;;;;;;8309336;28;20054;-87
2023/06/08 05:35:48;;;;;;;7.03;4.53;;;;;;;;;;8315255;28;20049;-87
2023/06/08 05:39:51;;;;;;;6.78;4.50;;;;;;;;;;8318542;28;20182;-87
2023/06/08 05:43:54;;;;;;;6.28;4.40;;;;;;;;;;8318071;28;20057;-88
2023/06/08 05:47:58;;;;;;;6.55;4.20;;;;;;;;;;8323838;28;20085;-96
2023/06/08 05:52:01;;;;;;;6.70;4.53;;;;;;;;;;8310592;28;20079;-88
2023/06/08 05:56:05;;;;;;;7.13;4.20;;;;;;;;;;8314195;28;20061;-88
2023/06/08 06:00:11;;;;;;;7.45;4.28;;;;;;;;;;8305306;28;20125;-90
2023/06/08 06:04:17;;;;;;;6.45;4.13;;;;;;;;;;8301983;28;20195;-89
2023/06/08 06:08:20;;;;;;;5.22;3.63;;;;;;;;;;8315508;28;20158;-87
2023/06/08 06:12:23;;;;;;;5.93;4.07;;;;;;;;;;8309110;28;20725;-96
2023/06/08 06:16:26;;;;;;;8.68;4.53;;;;;;;;;;8307002;28;20049;-86
2023/06/08 06:20:31;;;;;;;5.57;3.58;;;;;;;;;;8303397;28;20111;-89
2023/06/08 06:24:35;;;;;;;5.10;3.40;;;;;;;;;;8324571;28;20477;-87
2023/06/08 06:28:37;;;;;;;4.95;3.05;;;;;;;;;;8320927;28;20442;-89
2023/06/08 06:32:42;;;;;;;4.63;3.05;;;;;;;;;;8310628;28;20076;-87
2023/06/08 06:36:51;;;;;;;4.45;3.08;;;;;;;;;;8334389;28;20050;-88
2023/06/08 06:40:54;;;;;;;4.35;3.13;;;;;;;;;;8331036;28;20058;-87
2023/06/08 06:44:58;;;;;;;5.38;2.88;;;;;;;;;;8318391;28;20141;-88
2023/06/08 06:49:01;;;;;;;4.35;2.90;;;;;;;;;;8329816;28;20472;-88
2023/06/08 06:53:19;;;;;;;5.82;2.90;;;;;;;;;;8344180;28;20117;-96
2023/06/08 06:57:28;;;;;;;4.15;3.10;;;;;;;;;;8310571;28;20053;-95
2023/06/08 07:01:35;;;;;;;4.33;2.60;;;;;;;;;;8308265;28;20052;-89
2023/06/08 07:05:41;;;;;;;3.35;2.50;;;;;;;;;;8310860;28;20050;-86
2023/06/08 07:09:47;;;;;;;4.00;2.95;;;;;;;;;;8314201;28;20061;-88
2023/06/08 07:13:50;;;;;;;4.43;2.80;;;;;;;;;;8289105;28;20053;-87
2023/06/08 07:17:53;;;;;;;3.35;2.53;;;;;;;;;;8310916;28;20062;-88
2023/06/08 07:21:56;;;;;;;4.00;2.78;;;;;;;;;;8318061;28;20061;-90
2023/06/08 07:26:00;;;;;;;4.50;2.83;;;;;;;;;;8312358;28;20058;-89
2023/06/08 07:30:04;;;;;;;4.07;3.00;;;;;;;;;;8305376;28;20068;-89
2023/06/08 07:34:07;;;;;;;3.60;2.78;;;;;;;;;;8301324;28;20053;-88
2023/06/08 07:38:11;;;;;;;4.90;3.38;;;;;;;;;;8299958;28;20061;-87
2023/06/08 07:42:15;;;;;;;5.80;3.30;;;;;;;;;;8284620;28;20861;-85
2023/06/08 07:46:18;;;;;;;5.75;3.67;;;;;;;;;;8287879;28;20116;-83
2023/06/08 07:50:21;;;;;;;4.88;3.55;;;;;;;;;;8320645;28;20057;-83
2023/06/08 07:54:25;;;;;;;5.28;3.45;;;;;;;;;;8330976;28;20135;-84
2023/06/08 07:58:29;;;;;;;5.45;3.55;;;;;;;;;;8322275;28;20501;-84
2023/06/08 08:02:32;;;;;;;4.50;3.28;;;;;;;;;;8315044;28;20137;-83
2023/06/08 08:06:35;;;;;;;5.68;3.85;;;;;;;;;;8283848;28;20061;-83
2023/06/08 08:10:38;;;;;;;4.80;3.50;;;;;;;;;;8314565;28;20054;-84
2023/06/08 08:14:44;;;;;;;5.68;3.33;;;;;;;;;;8326949;28;20060;-85
2023/06/08 08:18:46;;;;;;;6.18;3.55;;;;;;;;;;8333846;28;20068;-84
2023/06/08 08:22:50;;;;;;;5.13;3.42;;;;;;;;;;8307643;28;20046;-85
2023/06/08 08:26:55;;;;;;;5.38;2.92;;;;;;;;;;8310449;28;20088;-83
2023/06/08 08:30:59;;;;;;;4.88;3.38;;;;;;;;;;8320830;28;20466;-83
2023/06/08 08:35:02;;;;;;;6.03;3.45;;;;;;;;;;8308950;28;20085;-84
2023/06/08 08:39:06;;;;;;;6.45;3.80;;;;;;;;;;8317775;28;20058;-84
2023/06/08 08:43:13;;;;;;;6.30;3.70;;;;;;;;;;8321422;28;20054;-84
2023/06/08 08:47:18;;;;;;;5.28;3.63;;;;;;;;;;8331326;28;20085;-84
2023/06/08 08:51:21;;;;;;;6.07;4.10;;;;;;;;;;8332371;28;20052;-84
2023/06/08 08:55:28;;;;;;;6.88;4.13;;;;;;;;;;8313312;28;20062;-84
2023/06/08 08:59:32;;;;;;;6.40;4.38;;;;;;;;;;8312122;28;20196;-84
2023/06/08 09:03:36;;;;;;;6.25;4.43;;;;;;;;;;8331354;28;20136;-86
2023/06/08 09:07:39;;;;;;;6.65;3.90;;;;;;;;;;8319470;28;20061;-86
2023/06/08 09:11:58;;;;;;;5.35;4.20;;;;;;;;;;8317985;28;20135;-84
2023/06/08 09:16:11;;;;;;;6.15;4.38;;;;;;;;;;8330231;28;20057;-84
2023/06/08 09:20:15;;;;;;;6.93;5.13;;;;;;;;;;8308555;28;20538;-85
2023/06/08 09:24:19;;;;;;;7.30;5.30;;;;;;;;;;8316097;28;20054;-84
2023/06/08 09:28:24;;;;;;;8.40;4.95;;;;;;;;;;8302333;28;20517;-84
2023/06/08 09:32:37;;;;;;;7.78;5.95;;;;;;;;;;8318320;28;20136;-86
2023/06/08 09:36:43;;;;;;;8.52;5.57;;;;;;;;;;8319853;28;20045;-90
2023/06/08 09:40:48;;;;;;;9.00;6.80;;;;;;;;;;8311242;28;20049;-93
2023/06/08 09:45:22;;;;;;;7.97;5.88;;;;;;;;;;8303703;28;20417;-89
2023/06/08 09:53:56;;;;;;;11.32;7.20;;;;;;;;;;8318511;28;20060;-95
2023/06/08 09:58:02;;;;;;;8.50;6.55;;;;;;;;;;8292263;28;20066;-94
2023/06/08 10:02:20;;;;;;;9.63;6.35;;;;;;;;;;8299448;28;20053;-94
2023/06/08 10:06:31;;;;;;;7.90;5.80;;;;;;;;;;8305038;28;20405;-92
2023/06/08 10:10:39;;;;;;;8.38;6.18;;;;;;;;;;8307508;28;20336;-95
2023/06/08 10:14:43;;;;;;;10.60;6.53;;;;;;;;;;8314154;28;20060;-87
2023/06/08 10:18:48;;;;;;;10.65;6.90;;;;;;;;;;8314174;28;20053;-90
2023/06/08 10:22:51;;;;;;;9.48;6.50;;;;;;;;;;8315416;28;20065;-90
2023/06/08 10:27:11;;;;;;;11.07;6.43;;;;;;;;;;8308356;28;20133;-89
2023/06/08 10:31:34;;;;;;;9.85;5.88;;;;;;;;;;8310134;28;20390;-92
2023/06/08 10:35:41;;;;;;;8.85;5.50;;;;;;;;;;8313637;28;20077;-92
2023/06/08 10:39:50;;;;;;;9.15;6.00;;;;;;;;;;8305944;28;20061;-91
2023/06/08 10:44:01;;;;;;;9.52;5.75;;;;;;;;;;8311854;28;20413;-91
2023/06/08 10:48:08;;;;;;;8.10;5.65;;;;;;;;;;8306966;28;20112;-94
2023/06/08 10:52:19;;;;;;;8.65;6.03;;;;;;;;;;8290861;28;20058;-90
2023/06/08 10:56:28;;;;;;;9.77;6.30;;;;;;;;;;8305354;28;20084;-92
2023/06/08 11:00:46;;;;;;;8.57;5.88;;;;;;;;;;8292504;28;20073;-90
2023/06/08 11:04:51;;;;;;;8.13;5.65;;;;;;;;;;8296997;28;20192;-90
2023/06/08 11:08:55;;;;;;;9.05;6.22;;;;;;;;;;8302658;28;20065;-92
2023/06/08 11:13:05;;;;;;;9.05;6.25;;;;;;;;;;8292154;28;20192;-89
2023/06/08 11:17:10;;;;;;;8.82;5.47;;;;;;;;;;8293227;28;20141;-91
2023/06/08 11:21:13;;;;;;;11.65;6.60;;;;;;;;;;8296744;28;20153;-91
2023/06/08 11:25:19;;;;;;;8.90;6.28;;;;;;;;;;8315851;28;20061;-91
2023/06/08 11:29:39;;;;;;;9.15;5.80;;;;;;;;;;8334758;28;20167;-93
2023/06/08 11:33:50;;;;;;;10.02;5.82;;;;;;;;;;8295871;28;20073;-88
2023/06/08 11:38:00;;;;;;;8.27;5.57;;;;;;;;;;8316627;28;20120;-96
2023/06/08 11:42:19;;;;;;;9.45;5.65;;;;;;;;;;8310483;28;20065;-92
2023/06/08 11:46:22;;;;;;;9.25;5.57;;;;;;;;;;8270495;28;20053;-90
2023/06/08 11:50:31;;;;;;;8.02;5.68;;;;;;;;;;8294382;28;20096;-90
2023/06/08 11:54:38;;;;;;;10.70;6.28;;;;;;;;;;8312328;28;20521;-91
2023/06/08 11:58:41;;;;;;;9.15;5.75;;;;;;;;;;8298012;28;20513;-92
2023/06/08 12:02:47;;;;;;;8.95;5.50;;;;;;;;;;8301676;28;20689;-90
2023/06/08 12:06:53;;;;;;;7.88;5.35;;;;;;;;;;8283436;28;20053;-89
2023/06/08 12:10:57;;;;;;;8.00;5.50;;;;;;;;;;8307945;28;20065;-89
2023/06/08 12:15:00;;;;;;;7.40;5.00;;;;;;;;;;8313324;28;20062;-91
2023/06/08 12:19:08;;;;;;;9.32;5.95;;;;;;;;;;8301041;28;20140;-90
2023/06/08 12:23:12;;;;;;;7.90;5.78;;;;;;;;;;8306902;28;20053;-92
2023/06/08 12:27:15;;;;;;;6.63;5.13;;;;;;;;;;8307046;28;20062;-90
2023/06/08 12:31:18;;;;;;;7.22;5.35;;;;;;;;;;8304558;28;20069;-90
2023/06/08 12:35:22;;;;;;;9.82;5.82;;;;;;;;;;8316370;28;20061;-93
2023/06/08 12:39:26;;;;;;;9.77;5.20;;;;;;;;;;8284463;28;20624;-90
2023/06/08 12:43:29;;;;;;;8.90;5.57;;;;;;;;;;8313258;28;20409;-92
2023/06/08 12:47:32;;;;;;;8.23;5.60;;;;;;;;;;8314934;28;20054;-90
2023/06/08 12:51:37;;;;;;;8.05;4.95;;;;;;;;;;8325654;28;20057;-92
2023/06/08 12:55:42;;;;;;;6.85;4.70;;;;;;;;;;8317363;28;20080;-89
2023/06/08 12:59:45;;;;;;;5.78;4.60;;;;;;;;;;8299993;28;20077;-93
2023/06/08 13:03:48;;;;;;;7.15;4.90;;;;;;;;;;8331365;28;20555;-90
2023/06/08 13:07:52;;;;;;;7.38;4.68;;;;;;;;;;8331121;28;20105;-90
2023/06/08 13:12:00;;;;;;;7.72;4.63;;;;;;;;;;8325321;28;20408;-90
2023/06/08 13:16:04;;;;;;;6.47;4.32;;;;;;;;;;8320489;28;20053;-90
2023/06/08 13:20:09;;;;;;;6.70;3.90;;;;;;;;;;8318866;28;20061;-92
2023/06/08 13:24:12;;;;;;;6.10;4.00;;;;;;;;;;8320573;28;20052;-89
2023/06/08 13:28:18;;;;;;;5.47;3.90;;;;;;;;;;8315733;28;20049;-92
2023/06/08 13:32:23;;;;;;;6.18;4.00;;;;;;;;;;8312805;28;20085;-92
2023/06/08 13:36:27;;;;;;;5.40;4.07;;;;;;;;;;8312014;28;20136;-90
2023/06/08 13:40:31;;;;;;;4.82;3.90;;;;;;;;;;8306820;28;20058;-92
2023/06/08 13:44:40;;;;;;;8.90;4.80;;;;;;;;;;8286180;28;20061;-90
2023/06/08 13:48:43;;;;;;;5.15;3.85;;;;;;;;;;8277093;28;20054;-89
2023/06/08 13:52:50;;;;;;;6.75;4.30;;;;;;;;;;8308406;28;20057;-93
2023/06/08 13:56:53;;;;;;;6.03;4.25;;;;;;;;;;8301311;28;20152;-89
2023/06/08 14:00:57;;;;;;;7.43;4.95;;;;;;;;;;8301478;28;20180;-89
2023/06/08 14:05:00;;;;;;;6.32;4.20;;;;;;;;;;8300966;28;20103;-92
2023/06/08 14:09:04;;;;;;;7.65;3.60;;;;;;;;;;8308016;28;20127;-93
2023/06/08 14:13:07;;;;;;;6.68;4.05;;;;;;;;;;8305265;28;20054;-92
2023/06/08 14:17:12;;;;;;;6.55;5.03;;;;;;;;;;8304568;28;20050;-95
2023/06/08 14:21:15;;;;;;;5.45;3.90;;;;;;;;;;8302079;28;20057;-93
2023/06/08 14:25:18;;;;;;;6.32;4.28;;;;;;;;;;8310839;28;20057;-91
2023/06/08 14:29:22;;;;;;;6.43;4.28;;;;;;;;;;8300318;28;20135;-91
2023/06/08 14:33:26;;;;;;;8.38;4.22;;;;;;;;;;8305223;28;20066;-90
2023/06/08 14:37:29;;;;;;;9.48;8.45;;;;;;;;;;8297300;28;20060;-92
2023/06/08 14:41:32;;;;;;;7.40;5.75;;;;;;;;;;8307805;28;20057;-92
2023/06/08 14:45:37;;;;;;;8.35;6.65;;;;;;;;;;8302943;28;20089;-92
2023/06/08 14:49:42;;;;;;;8.15;5.60;;;;;;;;;;8316866;28;20056;-92
2023/06/08 14:53:52;;;;;;;7.07;4.93;;;;;;;;;;8319974;28;20049;-90
2023/06/08 15:03:07;;;;;;;37.67;33.30;;;;;;;;;;8174297;29;20063;-90
2023/06/08 15:08:25;;;;;;;7.05;5.13;;;;;;;;;;8094130;29;20132;-91
2023/06/08 15:12:43;;;;;;;9.18;6.80;;;;;;;;;;8072213;29;20056;-93
2023/06/08 15:16:46;;;;;;;9.73;7.43;;;;;;;;;;8059492;29;20205;-93
2023/06/08 15:20:56;;;;;;;8.13;5.55;;;;;;;;;;8027640;29;20058;-91
2023/06/08 15:25:05;;;;;;;8.52;5.03;;;;;;;;;;8066724;29;20164;-94
2023/06/08 15:29:24;;;;;;;7.90;4.80;;;;;;;;;;8056256;29;20141;-96
2023/06/08 15:33:38;;;;;;;8.13;4.88;;;;;;;;;;8026893;29;20579;-90
2023/06/08 15:37:49;;;;;;;9.48;5.32;;;;;;;;;;8046880;29;20622;-93
2023/06/08 15:41:51;;;;;;;8.35;5.40;;;;;;;;;;8072240;29;20144;-89
2023/06/08 15:46:37;;;;;;;10.13;5.43;;;;;;;;;;8196782;28;20116;-90
2023/06/08 15:50:56;;;;;;;7.85;4.95;;;;;;;;;;8124448;29;20505;-94
2023/06/08 15:55:03;;;;;;;9.27;5.37;;;;;;;;;;8133362;29;20535;-94
2023/06/08 15:59:07;;;;;;;8.18;5.28;;;;;;;;;;8154546;29;20086;-95
2023/06/08 16:03:09;;;;;;;6.85;4.80;;;;;;;;;;8160558;29;20079;-94
2023/06/08 16:07:14;;;;;;;9.52;5.40;;;;;;;;;;8216941;28;20055;-90
2023/06/08 16:11:17;;;;;;;7.45;4.55;;;;;;;;;;8244655;28;20621;-88
2023/06/08 16:15:23;;;;;;;7.32;4.68;;;;;;;;;;8215735;28;20186;-90
2023/06/08 16:19:27;;;;;;;8.10;4.80;;;;;;;;;;8232042;28;20062;-94
2023/06/08 16:23:31;;;;;;;7.63;4.93;;;;;;;;;;8207924;28;20535;-90
2023/06/08 16:27:34;;;;;;;9.15;5.35;;;;;;;;;;8272675;28;20065;-91
2023/06/08 16:31:41;;;;;;;7.72;5.28;;;;;;;;;;8332678;28;20141;-90
2023/06/08 16:35:44;;;;;;;8.23;5.47;;;;;;;;;;8332408;28;20088;-90
2023/06/08 16:39:48;;;;;;;12.20;6.00;;;;;;;;;;8329396;28;20394;-90
2023/06/08 16:43:51;;;;;;;9.13;5.80;;;;;;;;;;8310931;28;20053;-90
2023/06/08 16:47:55;;;;;;;9.02;5.40;;;;;;;;;;8307776;28;20500;-91
2023/06/08 16:51:59;;;;;;;9.80;6.22;;;;;;;;;;8311282;28;20486;-90
2023/06/08 16:56:03;;;;;;;8.57;5.85;;;;;;;;;;8300825;28;20051;-90
2023/06/08 17:00:07;;;;;;;9.82;5.68;;;;;;;;;;8331736;28;20057;-90
2023/06/08 17:04:10;;;;;;;8.65;5.78;;;;;;;;;;8318549;28;20064;-90
2023/06/08 17:08:13;;;;;;;8.40;5.60;;;;;;;;;;8303268;28;20100;-89
2023/06/08 17:12:18;;;;;;;9.27;5.43;;;;;;;;;;8307220;28;20099;-89
2023/06/08 17:16:21;;;;;;;7.00;4.70;;;;;;;;;;8317975;28;20057;-90
2023/06/08 17:20:25;;;;;;;7.93;4.88;;;;;;;;;;8330640;28;20484;-91
2023/06/08 17:24:31;;;;;;;7.05;4.85;;;;;;;;;;8331095;28;20052;-90
2023/06/08 17:28:35;;;;;;;8.00;4.40;;;;;;;;;;8313636;28;20482;-89
2023/06/08 17:32:38;;;;;;;6.85;4.25;;;;;;;;;;8330430;28;20057;-90
2023/06/08 17:36:41;;;;;;;6.70;4.70;;;;;;;;;;8308493;28;20062;-88
2023/06/08 17:40:44;;;;;;;8.48;5.40;;;;;;;;;;8317441;28;20103;-90
2023/06/08 17:44:48;;;;;;;8.40;5.18;;;;;;;;;;8328640;28;20636;-91
2023/06/08 17:49:06;;;;;;;10.23;5.68;;;;;;;;;;8301850;28;20095;-91
2023/06/08 17:53:12;;;;;;;8.95;5.28;;;;;;;;;;8296205;28;20056;-91
2023/06/08 17:57:15;;;;;;;8.75;5.45;;;;;;;;;;8294290;28;20081;-89
2023/06/08 18:01:20;;;;;;;7.38;5.32;;;;;;;;;;8279686;28;20077;-90
2023/06/08 18:05:24;;;;;;;8.32;5.47;;;;;;;;;;8264979;28;20074;-91
2023/06/08 18:09:27;;;;;;;7.82;5.53;;;;;;;;;;8277538;28;20046;-90
2023/06/08 18:13:30;;;;;;;9.07;6.07;;;;;;;;;;8289236;28;20053;-91
2023/06/08 18:17:34;;;;;;;12.45;8.70;;;;;;;;;;8283025;28;20060;-90
2023/06/08 18:21:38;;;;;;;10.15;5.40;;;;;;;;;;8282140;28;20155;-92
2023/06/08 18:25:41;;;;;;;9.48;6.07;;;;;;;;;;8310023;28;20409;-91
2023/06/08 18:29:45;;;;;;;7.82;5.57;;;;;;;;;;8291286;28;20410;-91
2023/06/08 18:33:51;;;;;;;7.22;5.70;;;;;;;;;;8279836;28;20141;-92
2023/06/08 18:37:58;;;;;;;8.27;5.90;;;;;;;;;;8283283;28;20074;-96
2023/06/08 18:42:01;;;;;;;8.85;6.22;;;;;;;;;;8288755;28;20062;-89
2023/06/08 18:46:08;;;;;;;8.65;6.68;;;;;;;;;;8306227;28;20054;-96
2023/06/08 18:50:14;;;;;;;9.55;6.35;;;;;;;;;;8275293;28;20054;-94
2023/06/08 18:54:18;;;;;;;8.00;6.05;;;;;;;;;;8290350;28;20443;-90
2023/06/08 18:58:21;;;;;;;9.77;6.10;;;;;;;;;;8285492;28;20054;-92
2023/06/08 19:02:25;;;;;;;9.88;7.05;;;;;;;;;;8279115;28;20059;-92
2023/06/08 19:06:31;;;;;;;10.32;6.93;;;;;;;;;;8277509;28;20058;-90
2023/06/08 19:10:34;;;;;;;11.60;7.47;;;;;;;;;;8289680;28;20077;-92
2023/06/08 19:14:40;;;;;;;13.70;7.20;;;;;;;;;;8297695;28;20054;-95
2023/06/08 19:18:45;;;;;;;13.18;6.97;;;;;;;;;;8265329;28;20132;-90
2023/06/08 19:22:51;;;;;;;8.93;6.85;;;;;;;;;;8283434;28;20494;-91
2023/06/08 19:26:54;;;;;;;10.98;7.50;;;;;;;;;;8275870;28;20414;-94
2023/06/08 19:30:57;;;;;;;13.55;7.93;;;;;;;;;;8280136;28;20820;-92
2023/06/08 19:35:02;;;;;;;12.82;8.38;;;;;;;;;;8290803;28;20514;-90
2023/06/08 19:39:07;;;;;;;15.70;8.88;;;;;;;;;;8280427;28;20060;-95
2023/06/08 19:43:11;;;;;;;14.15;9.80;;;;;;;;;;8277993;28;20089;-90
2023/06/08 19:47:14;;;;;;;13.82;9.10;;;;;;;;;;8270428;28;20081;-90
2023/06/08 19:51:19;;;;;;;14.13;9.20;;;;;;;;;;8283783;28;20058;-90
2023/06/08 19:55:23;;;;;;;15.68;9.95;;;;;;;;;;8301686;28;20068;-92
2023/06/08 19:59:26;;;;;;;18.13;11.27;;;;;;;;;;8300316;28;20513;-89
2023/06/08 20:03:29;;;;;;;22.35;11.30;;;;;;;;;;8302135;28;20078;-91
2023/06/08 20:07:34;;;;;;;16.80;11.50;;;;;;;;;;8298255;28;20111;-90
2023/06/08 20:11:39;;;;;;;20.60;10.45;;;;;;;;;;8301479;28;20140;-92
2023/06/08 20:15:42;;;;;;;17.42;10.88;;;;;;;;;;8269769;28;20054;-91
2023/06/08 20:19:45;;;;;;;20.58;11.25;;;;;;;;;;8279421;28;20471;-90
2023/06/08 20:23:49;;;;;;;14.45;10.73;;;;;;;;;;8277923;28;20058;-91
2023/06/08 20:27:55;;;;;;;15.45;10.95;;;;;;;;;;8295594;28;20057;-91
2023/06/08 20:32:28;;;;;;;16.15;11.00;;;;;;;;;;8278277;28;20056;-89
2023/06/08 20:36:32;;;;;;;15.45;11.68;;;;;;;;;;8271274;28;20058;-90
2023/06/08 20:40:35;;;;;;;15.68;11.23;;;;;;;;;;8270016;28;20047;-92
2023/06/08 20:44:40;;;;;;;15.77;11.80;;;;;;;;;;8279624;28;20046;-91
2023/06/08 20:48:43;;;;;;;18.77;11.40;;;;;;;;;;8292900;28;20137;-90
2023/06/08 20:52:46;;;;;;;18.48;11.35;;;;;;;;;;8300090;28;20490;-92
2023/06/08 20:56:49;;;;;;;16.42;11.55;;;;;;;;;;8270970;28;20050;-92
2023/06/08 21:00:56;;;;;;;21.67;12.82;;;;;;;;;;8280931;28;20062;-91
2023/06/08 21:04:59;;;;;;;23.50;13.82;;;;;;;;;;8285969;28;20088;-94
2023/06/08 21:09:03;;;;;;;19.55;13.45;;;;;;;;;;8288611;28;20081;-92
2023/06/08 21:13:06;;;;;;;18.35;12.18;;;;;;;;;;8291534;28;20145;-92
2023/06/08 21:17:11;;;;;;;17.75;12.13;;;;;;;;;;8275863;28;20061;-92
2023/06/08 21:21:14;;;;;;;20.65;12.82;;;;;;;;;;8282565;28;20081;-91
2023/06/08 21:25:17;;;;;;;18.80;13.35;;;;;;;;;;8279973;28;20558;-90
2023/06/08 21:29:22;;;;;;;20.13;13.60;;;;;;;;;;8271971;28;20511;-88
2023/06/08 21:33:28;;;;;;;20.33;14.00;;;;;;;;;;8281472;28;20054;-91
2023/06/08 21:37:31;;;;;;;18.70;12.45;;;;;;;;;;8296451;28;20050;-90
2023/06/08 21:41:34;;;;;;;17.35;12.65;;;;;;;;;;8273208;28;20197;-91
2023/06/08 21:45:37;;;;;;;17.95;12.63;;;;;;;;;;8273610;28;20081;-95
2023/06/08 21:49:42;;;;;;;18.13;12.68;;;;;;;;;;8277332;28;20064;-91
2023/06/08 21:53:45;;;;;;;19.33;12.68;;;;;;;;;;8276538;28;20134;-91
2023/06/08 21:57:48;;;;;;;19.35;13.05;;;;;;;;;;8267496;28;20058;-92
2023/06/08 22:01:51;;;;;;;19.73;13.18;;;;;;;;;;8273550;28;20128;-92
2023/06/08 22:05:57;;;;;;;18.60;13.45;;;;;;;;;;8290767;28;20129;-94
2023/06/08 22:10:00;;;;;;;17.60;12.75;;;;;;;;;;8276312;28;20061;-92
2023/06/08 22:14:03;;;;;;;17.98;12.00;;;;;;;;;;8289160;28;20058;-92
2023/06/08 22:18:06;;;;;;;19.63;13.50;;;;;;;;;;8275652;28;20050;-92
2023/06/08 22:22:11;;;;;;;22.52;14.27;;;;;;;;;;8277913;28;20103;-92
2023/06/08 22:26:14;;;;;;;20.70;13.90;;;;;;;;;;8278356;28;20057;-92
2023/06/08 22:30:17;;;;;;;21.40;13.68;;;;;;;;;;8282452;28;20133;-95
2023/06/08 22:34:20;;;;;;;21.23;15.13;;;;;;;;;;8275088;28;20062;-91
2023/06/08 22:38:24;;;;;;;18.88;14.40;;;;;;;;;;8277731;28;20084;-91
2023/06/08 22:42:27;;;;;;;18.83;14.00;;;;;;;;;;8283792;28;20129;-91
2023/06/08 22:46:30;;;;;;;22.92;13.48;;;;;;;;;;8270934;28;20081;-91
2023/06/08 22:50:33;;;;;;;22.35;14.55;;;;;;;;;;8287491;28;20145;-95
2023/06/08 22:54:37;;;;;;;20.90;13.63;;;;;;;;;;8279638;28;20691;-92
2023/06/08 22:58:40;;;;;;;20.70;14.27;;;;;;;;;;8276973;28;20050;-92
2023/06/08 23:02:45;;;;;;;20.70;14.05;;;;;;;;;;8270228;28;20050;-92
2023/06/08 23:06:48;;;;;;;16.80;12.23;;;;;;;;;;8265450;28;20063;-91
2023/06/08 23:10:55;;;;;;;17.45;12.20;;;;;;;;;;8269896;28;20137;-92
2023/06/08 23:14:59;;;;;;;19.20;12.00;;;;;;;;;;8277117;28;20534;-91
2023/06/08 23:19:02;;;;;;;18.75;11.30;;;;;;;;;;8279243;28;20120;-91
2023/06/08 23:23:05;;;;;;;14.43;10.63;;;;;;;;;;8283957;28;20050;-91
2023/06/08 23:27:11;;;;;;;13.63;10.48;;;;;;;;;;8286412;28;20046;-92
2023/06/08 23:31:14;;;;;;;12.55;9.52;;;;;;;;;;8281343;28;20410;-92
2023/06/08 23:35:17;;;;;;;15.30;9.63;;;;;;;;;;8265129;28;20077;-92
2023/06/08 23:39:20;;;;;;;15.00;10.18;;;;;;;;;;8287487;28;20072;-91
2023/06/08 23:43:24;;;;;;;14.30;10.50;;;;;;;;;;8291411;28;20064;-91
2023/06/08 23:47:27;;;;;;;18.48;11.98;;;;;;;;;;8278371;28;20690;-90
2023/06/08 23:51:30;;;;;;;13.60;10.85;;;;;;;;;;8284071;28;20585;-90
2023/06/08 23:55:33;;;;;;;16.08;11.13;;;;;;;;;;8281578;28;20101;-95
2023/06/08 23:59:55;;;;;;;15.93;10.88;;;;;;;;;;8279249;28;20077;-91
